Time;durP1;ratioP1;P1;durP2;ratioP2;P2;SDS_P1;SDS_P2;PMS_P1;PMS_P2;Temp;Humidity;BMP_temperature;BMP_pressure;BME280_temperature;BME280_humidity;BME280_pressure;Samples;Min_cycle;Max_cycle;Signal;HPM_P1;HPM_P2
2022/04/13 00:01:14;;;;;;;1.63;1.10;;;20.40;49.60;;;;;;5054078;28;20219;-90
2022/04/13 00:03:41;;;;;;;1.47;1.30;;;20.30;49.60;;;;;;5053501;28;20207;-90
2022/04/13 00:06:07;;;;;;;1.87;1.13;;;20.40;49.60;;;;;;5054607;28;20193;-90
2022/04/13 00:08:33;;;;;;;2.93;1.50;;;20.40;49.70;;;;;;5054415;28;20171;-90
2022/04/13 00:11:00;;;;;;;1.40;1.20;;;20.40;49.60;;;;;;5053913;28;20260;-90
2022/04/13 00:13:26;;;;;;;1.17;1.07;;;20.30;49.60;;;;;;5054586;28;20182;-90
2022/04/13 00:15:51;;;;;;;1.10;1.00;;;20.30;49.60;;;;;;5054470;28;20541;-90
2022/04/13 00:18:17;;;;;;;1.57;1.30;;;20.30;49.60;;;;;;5053222;28;20181;-89
2022/04/13 00:20:43;;;;;;;1.10;1.00;;;20.30;49.60;;;;;;5055611;28;20210;-90
2022/04/13 00:23:09;;;;;;;1.33;1.17;;;20.30;49.60;;;;;;5053990;28;20216;-89
2022/04/13 00:25:38;;;;;;;1.40;1.10;;;20.30;49.70;;;;;;5054123;28;20188;-89
2022/04/13 00:28:05;;;;;;;1.47;1.20;;;20.30;49.70;;;;;;5054427;28;20175;-90
2022/04/13 00:30:31;;;;;;;1.20;1.10;;;20.30;49.70;;;;;;5054077;28;20186;-90
2022/04/13 00:32:57;;;;;;;1.27;1.17;;;20.30;49.70;;;;;;5054272;28;20198;-90
2022/04/13 00:35:24;;;;;;;1.10;1.00;;;20.30;49.70;;;;;;5055444;28;20505;-90
2022/04/13 00:37:50;;;;;;;1.20;1.10;;;20.30;49.70;;;;;;5036435;28;20180;-90
2022/04/13 00:40:16;;;;;;;1.33;1.10;;;20.30;49.80;;;;;;5052680;28;20179;-90
2022/04/13 00:42:42;;;;;;;1.20;1.03;;;20.30;49.80;;;;;;5052807;28;20351;-90
2022/04/13 00:45:08;;;;;;;1.47;1.10;;;20.30;49.80;;;;;;5052909;28;20178;-90
2022/04/13 00:47:39;;;;;;;1.90;1.00;;;20.30;49.80;;;;;;5056755;28;20173;-90
2022/04/13 00:50:06;;;;;;;1.20;1.10;;;20.30;49.80;;;;;;5056119;28;20179;-90
2022/04/13 00:52:35;;;;;;;1.20;1.10;;;20.20;49.80;;;;;;5057413;28;20331;-90
2022/04/13 00:55:02;;;;;;;1.00;0.90;;;20.30;49.80;;;;;;5056807;28;20180;-90
2022/04/13 00:57:32;;;;;;;1.43;1.33;;;20.20;49.80;;;;;;5057690;28;20172;-90
2022/04/13 01:00:00;;;;;;;2.43;1.20;;;20.20;49.80;;;;;;5056204;28;20174;-90
2022/04/13 01:02:29;;;;;;;1.10;1.00;;;20.20;49.80;;;;;;5056919;28;20177;-90
2022/04/13 01:04:57;;;;;;;1.20;1.10;;;20.20;49.90;;;;;;5057800;28;20295;-90
2022/04/13 01:07:24;;;;;;;1.23;1.00;;;20.20;49.90;;;;;;5056760;28;20203;-90
2022/04/13 01:09:50;;;;;;;1.50;1.20;;;20.20;49.90;;;;;;5056575;28;20555;-90
2022/04/13 01:12:16;;;;;;;1.03;0.93;;;20.20;49.90;;;;;;5056238;28;20568;-90
2022/04/13 01:14:41;;;;;;;1.20;1.10;;;20.20;49.90;;;;;;5057052;28;20181;-90
2022/04/13 01:17:08;;;;;;;1.03;1.00;;;20.20;49.90;;;;;;5056332;28;20570;-90
2022/04/13 01:19:33;;;;;;;1.27;1.10;;;20.20;49.90;;;;;;5055898;28;20172;-90
2022/04/13 01:22:12;;;;;;;1.10;1.00;;;20.20;49.90;;;;;;5056503;28;20178;-90
2022/04/13 01:24:38;;;;;;;1.10;1.00;;;20.10;49.90;;;;;;5056934;28;20218;-90
2022/04/13 01:27:03;;;;;;;1.70;1.10;;;20.20;49.90;;;;;;5056042;28;20182;-90
2022/04/13 01:29:29;;;;;;;1.60;1.03;;;20.20;50.00;;;;;;5055947;28;20188;-90
2022/04/13 01:31:56;;;;;;;1.60;1.13;;;20.20;50.00;;;;;;5055193;28;20199;-90
2022/04/13 01:34:22;;;;;;;1.30;1.17;;;20.10;49.90;;;;;;5056407;28;20187;-90
2022/04/13 01:36:48;;;;;;;1.53;1.07;;;20.10;49.90;;;;;;5055678;28;20176;-90
2022/04/13 01:39:13;;;;;;;1.33;0.83;;;20.10;50.00;;;;;;5056009;28;20546;-90
2022/04/13 01:41:39;;;;;;;1.57;1.10;;;20.10;50.00;;;;;;5056237;28;20184;-90
2022/04/13 01:44:05;;;;;;;1.17;1.07;;;20.10;50.00;;;;;;5056838;28;20251;-90
2022/04/13 01:46:31;;;;;;;1.43;1.20;;;20.10;50.00;;;;;;5056679;28;20171;-90
2022/04/13 01:48:57;;;;;;;1.37;1.00;;;20.10;50.10;;;;;;5056645;28;20487;-90
2022/04/13 01:51:23;;;;;;;1.17;1.07;;;20.10;50.00;;;;;;5055819;28;20182;-89
2022/04/13 01:56:24;;;;;;;1.13;1.03;;;20.10;50.00;;;;;;5014599;28;20219;-79
2022/04/13 01:58:50;;;;;;;1.00;0.90;;;20.10;50.10;;;;;;5016947;28;20175;-79
2022/04/13 02:01:17;;;;;;;1.00;0.90;;;20.10;50.10;;;;;;5017120;28;20179;-80
2022/04/13 02:03:43;;;;;;;1.10;1.00;;;20.00;50.00;;;;;;5017335;28;20602;-80
2022/04/13 02:06:09;;;;;;;1.20;1.03;;;20.10;50.10;;;;;;5016600;28;20632;-79
2022/04/13 02:08:35;;;;;;;1.67;1.20;;;20.00;50.10;;;;;;5016517;28;20189;-79
2022/04/13 02:11:01;;;;;;;1.17;0.97;;;20.00;50.10;;;;;;5016810;28;20179;-79
2022/04/13 02:13:27;;;;;;;1.10;1.00;;;20.00;50.10;;;;;;5016299;28;20202;-80
2022/04/13 02:15:53;;;;;;;1.00;0.90;;;20.00;50.10;;;;;;5016840;28;20579;-79
2022/04/13 02:18:19;;;;;;;1.20;1.10;;;20.00;50.10;;;;;;5016774;28;20458;-79
2022/04/13 02:20:45;;;;;;;0.80;0.80;;;20.00;50.10;;;;;;5016222;28;20180;-79
2022/04/13 02:23:10;;;;;;;1.60;1.07;;;20.00;50.10;;;;;;5016853;28;20219;-79
2022/04/13 02:25:38;;;;;;;1.53;1.07;;;20.00;50.10;;;;;;5015831;28;20219;-79
2022/04/13 02:28:04;;;;;;;1.27;1.17;;;20.00;50.10;;;;;;5017192;28;20183;-79
2022/04/13 02:30:30;;;;;;;1.47;1.20;;;20.00;50.10;;;;;;5016933;28;20174;-79
2022/04/13 02:32:56;;;;;;;1.13;1.03;;;20.00;50.10;;;;;;5016508;28;20194;-80
2022/04/13 02:35:23;;;;;;;1.30;1.00;;;20.00;50.10;;;;;;5016165;28;20212;-79
2022/04/13 02:37:49;;;;;;;1.87;0.90;;;19.90;50.10;;;;;;5016734;28;20178;-80
2022/04/13 02:40:14;;;;;;;1.10;1.00;;;19.90;50.10;;;;;;5016748;28;20175;-80
2022/04/13 02:42:40;;;;;;;1.10;1.00;;;19.90;50.10;;;;;;5015958;28;20567;-79
2022/04/13 02:45:06;;;;;;;1.30;1.10;;;19.90;50.20;;;;;;5017134;28;20183;-80
2022/04/13 02:47:33;;;;;;;1.00;0.90;;;19.90;50.10;;;;;;5016501;28;20432;-80
2022/04/13 02:50:00;;;;;;;0.90;0.90;;;19.90;50.20;;;;;;5015573;28;20273;-79
2022/04/13 02:52:28;;;;;;;1.00;0.90;;;19.90;50.10;;;;;;5015350;28;20194;-79
2022/04/13 02:54:59;;;;;;;0.80;0.80;;;19.90;50.20;;;;;;5015834;28;20261;-79
2022/04/13 02:57:25;;;;;;;1.30;1.00;;;19.90;50.20;;;;;;5015776;28;20180;-79
2022/04/13 02:59:51;;;;;;;1.40;1.10;;;19.90;50.20;;;;;;5015263;28;20467;-79
2022/04/13 03:02:17;;;;;;;1.20;1.10;;;19.90;50.20;;;;;;5015690;28;20206;-79
2022/04/13 03:04:45;;;;;;;1.00;1.00;;;19.90;50.20;;;;;;5015033;28;20540;-79
2022/04/13 03:07:12;;;;;;;1.20;1.10;;;19.90;50.20;;;;;;5015731;28;20176;-80
2022/04/13 03:09:38;;;;;;;1.70;0.90;;;19.90;50.20;;;;;;5018797;28;20209;-80
2022/04/13 03:12:06;;;;;;;0.90;0.90;;;19.90;50.20;;;;;;5015897;28;20181;-79
2022/04/13 03:14:32;;;;;;;1.10;1.00;;;19.90;50.20;;;;;;5015201;28;20240;-78
2022/04/13 03:16:57;;;;;;;1.10;0.90;;;19.90;50.20;;;;;;5014943;28;20184;-79
2022/04/13 03:19:23;;;;;;;1.37;1.10;;;19.80;50.20;;;;;;5014637;28;20182;-79
2022/04/13 03:21:51;;;;;;;0.87;0.80;;;19.80;50.20;;;;;;5014746;28;20178;-79
2022/04/13 03:24:18;;;;;;;1.30;1.00;;;19.80;50.20;;;;;;5014692;28;20273;-80
2022/04/13 03:26:43;;;;;;;1.10;1.00;;;19.80;50.20;;;;;;5014750;28;20179;-80
2022/04/13 03:29:09;;;;;;;1.23;0.90;;;19.80;50.20;;;;;;5014481;28;20206;-80
2022/04/13 03:31:35;;;;;;;1.10;1.00;;;19.80;50.30;;;;;;5014729;28;20498;-80
2022/04/13 03:34:01;;;;;;;2.03;1.00;;;19.80;50.20;;;;;;5014638;28;20178;-79
2022/04/13 03:36:27;;;;;;;1.17;1.00;;;19.80;50.30;;;;;;5013502;28;20184;-79
2022/04/13 03:38:54;;;;;;;1.93;0.90;;;19.80;50.30;;;;;;5013550;28;20194;-79
2022/04/13 03:41:19;;;;;;;1.00;0.90;;;19.80;50.20;;;;;;5013928;28;20187;-80
2022/04/13 03:43:45;;;;;;;0.83;0.83;;;19.80;50.30;;;;;;5013739;28;20209;-79
2022/04/13 03:46:11;;;;;;;1.60;0.90;;;19.70;50.20;;;;;;5013829;28;20182;-79
2022/04/13 03:48:37;;;;;;;2.07;1.10;;;19.80;50.30;;;;;;5013363;28;20180;-79
2022/04/13 03:51:08;;;;;;;1.10;0.97;;;19.70;50.30;;;;;;5013218;28;20231;-79
2022/04/13 03:53:34;;;;;;;1.33;1.10;;;19.70;50.30;;;;;;5013886;28;20287;-80
2022/04/13 03:56:00;;;;;;;0.97;0.87;;;19.70;50.30;;;;;;5014143;28;20310;-80
2022/04/13 03:58:27;;;;;;;0.90;0.80;;;19.70;50.20;;;;;;5014630;28;20204;-82
2022/04/13 04:00:53;;;;;;;1.00;0.90;;;19.70;50.30;;;;;;5013565;28;20181;-82
2022/04/13 04:03:19;;;;;;;1.03;0.93;;;19.70;50.30;;;;;;5013256;28;20215;-79
2022/04/13 04:05:44;;;;;;;1.17;0.97;;;19.70;50.30;;;;;;5014076;28;20279;-80
2022/04/13 04:08:10;;;;;;;1.10;1.00;;;19.70;50.30;;;;;;5013941;28;20189;-79
2022/04/13 04:10:36;;;;;;;1.17;0.90;;;19.70;50.30;;;;;;5013934;28;20634;-80
2022/04/13 04:13:01;;;;;;;2.00;1.10;;;19.70;50.30;;;;;;5013179;28;20614;-80
2022/04/13 04:15:27;;;;;;;0.90;0.90;;;19.70;50.30;;;;;;5013461;28;20476;-79
2022/04/13 04:17:53;;;;;;;1.10;1.00;;;19.60;50.30;;;;;;5014092;28;20181;-79
2022/04/13 04:20:19;;;;;;;2.00;0.90;;;19.70;50.30;;;;;;5015104;28;20181;-79
2022/04/13 04:22:45;;;;;;;1.03;0.93;;;19.70;50.30;;;;;;5017368;28;20184;-79
2022/04/13 04:25:10;;;;;;;1.10;1.00;;;19.60;50.30;;;;;;5017150;28;20479;-80
2022/04/13 04:27:36;;;;;;;1.10;1.00;;;19.70;50.30;;;;;;5017109;28;20171;-79
2022/04/13 04:30:03;;;;;;;1.07;0.97;;;19.70;50.30;;;;;;5016619;28;20170;-79
2022/04/13 04:32:28;;;;;;;1.00;0.90;;;19.60;50.30;;;;;;5016546;28;20174;-79
2022/04/13 04:34:54;;;;;;;0.83;0.73;;;19.60;50.30;;;;;;5017925;28;20580;-80
2022/04/13 04:37:20;;;;;;;1.03;1.00;;;19.60;50.30;;;;;;5016250;28;20361;-79
2022/04/13 04:39:46;;;;;;;0.97;0.90;;;19.60;50.30;;;;;;5016763;28;20521;-78
2022/04/13 04:42:13;;;;;;;1.17;0.93;;;19.60;50.30;;;;;;5015832;28;20182;-79
2022/04/13 04:44:39;;;;;;;1.10;1.00;;;19.60;50.30;;;;;;5016148;28;20202;-79
2022/04/13 04:47:05;;;;;;;1.17;0.90;;;19.60;50.30;;;;;;5016310;28;20572;-79
2022/04/13 04:49:30;;;;;;;1.70;1.00;;;19.60;50.30;;;;;;5016220;28;20221;-78
2022/04/13 04:51:56;;;;;;;1.17;1.07;;;19.60;50.30;;;;;;5016297;28;20251;-78
2022/04/13 04:54:22;;;;;;;1.10;1.00;;;19.60;50.30;;;;;;5015511;28;20425;-79
2022/04/13 04:56:48;;;;;;;0.80;0.80;;;19.60;50.30;;;;;;5014152;28;20190;-79
2022/04/13 04:59:15;;;;;;;1.73;1.10;;;19.60;50.30;;;;;;5014695;28;20182;-78
2022/04/13 05:02:02;;;;;;;0.97;0.87;;;19.60;50.30;;;;;;5058092;23;20297;-77
2022/04/13 05:04:27;;;;;;;1.10;1.00;;;19.60;50.40;;;;;;5074220;28;20303;-77
2022/04/13 05:06:53;;;;;;;0.93;0.90;;;19.50;50.30;;;;;;5073976;28;20322;-79
2022/04/13 05:09:34;;;;;;;6.03;1.30;;;19.60;50.30;;;;;;5073678;28;20458;-77
2022/04/13 05:12:18;;;;;;;0.80;0.80;;;19.60;50.30;;;;;;5073714;28;20272;-77
2022/04/13 05:14:55;;;;;;;1.00;0.90;;;19.50;50.20;;;;;;5073051;28;20211;-77
2022/04/13 05:17:22;;;;;;;1.00;0.90;;;19.60;50.30;;;;;;5073384;28;20190;-77
2022/04/13 05:19:57;;;;;;;1.20;1.10;;;19.60;50.30;;;;;;5073124;28;20192;-77
2022/04/13 05:22:32;;;;;;;1.50;1.23;;;19.50;50.20;;;;;;5073340;28;20361;-77
2022/04/13 05:25:24;;;;;;;0.97;0.93;;;19.60;50.30;;;;;;5073996;28;20196;-77
2022/04/13 05:27:49;;;;;;;1.53;0.97;;;19.60;50.30;;;;;;5072248;28;20187;-77
2022/04/13 05:30:36;;;;;;;0.83;0.83;;;19.60;50.20;;;;;;5072463;28;20249;-77
2022/04/13 05:33:06;;;;;;;0.97;0.87;;;19.60;50.20;;;;;;5071809;28;20176;-77
2022/04/13 05:35:57;;;;;;;1.50;1.30;;;19.60;50.20;;;;;;5071913;28;20275;-77
2022/04/13 05:38:25;;;;;;;1.10;1.00;;;19.60;50.20;;;;;;5072444;28;20199;-77
2022/04/13 05:40:51;;;;;;;0.87;0.87;;;19.60;50.10;;;;;;5072512;28;20170;-77
2022/04/13 05:43:25;;;;;;;1.17;1.07;;;19.60;50.10;;;;;;5072596;28;20229;-77
2022/04/13 05:45:54;;;;;;;0.97;0.90;;;19.70;50.10;;;;;;5073317;28;20169;-77
2022/04/13 05:48:25;;;;;;;1.23;1.10;;;19.70;50.10;;;;;;5071224;28;20164;-77
2022/04/13 05:50:54;;;;;;;0.97;0.97;;;19.70;50.00;;;;;;5071147;28;20201;-77
2022/04/13 05:53:24;;;;;;;0.90;0.90;;;19.70;50.00;;;;;;5065379;28;20177;-77
2022/04/13 05:55:57;;;;;;;1.17;1.00;;;19.70;49.90;;;;;;5072826;28;20661;-77
2022/04/13 05:58:40;;;;;;;1.00;0.90;;;19.80;49.90;;;;;;5071962;28;20265;-77
2022/04/13 06:01:14;;;;;;;1.07;0.97;;;19.80;49.80;;;;;;5070970;28;20203;-76
2022/04/13 06:03:40;;;;;;;1.50;1.00;;;19.80;49.80;;;;;;5070431;28;20560;-77
2022/04/13 06:06:09;;;;;;;1.00;0.90;;;19.90;49.80;;;;;;5071360;28;20513;-77
2022/04/13 06:08:53;;;;;;;1.33;0.90;;;19.90;49.70;;;;;;5068603;28;20176;-77
2022/04/13 06:11:19;;;;;;;1.07;0.97;;;19.90;49.60;;;;;;5071913;28;20166;-77
2022/04/13 06:13:44;;;;;;;1.10;0.90;;;20.00;49.60;;;;;;5072219;28;20170;-77
2022/04/13 06:16:28;;;;;;;1.10;1.00;;;20.00;49.50;;;;;;5072257;28;20468;-77
2022/04/13 06:18:54;;;;;;;0.87;0.87;;;20.10;49.40;;;;;;5072199;28;20451;-77
2022/04/13 06:21:29;;;;;;;0.90;0.90;;;20.10;49.30;;;;;;5071319;28;20328;-76
2022/04/13 06:24:01;;;;;;;1.10;0.90;;;20.20;49.30;;;;;;5070939;28;20234;-77
2022/04/13 06:26:26;;;;;;;1.93;1.07;;;20.20;49.20;;;;;;5071710;28;20175;-77
2022/04/13 06:28:55;;;;;;;0.93;0.93;;;20.30;49.10;;;;;;5070975;28;20167;-77
2022/04/13 06:31:27;;;;;;;2.20;1.20;;;20.40;49.00;;;;;;5071249;28;20171;-77
2022/04/13 06:34:40;;;;;;;1.27;1.10;;;20.40;48.80;;;;;;5071611;28;20179;-77
2022/04/13 06:36:42;;;;;;;1.10;1.00;;;20.50;48.80;;;;;;5063681;28;20224;-77
2022/04/13 06:39:11;;;;;;;1.27;1.00;;;20.60;48.60;;;;;;5070013;28;20233;-78
2022/04/13 06:42:04;;;;;;;1.30;1.10;;;20.60;48.50;;;;;;5070963;28;20158;-77
2022/04/13 06:44:39;;;;;;;1.07;0.93;;;20.70;48.40;;;;;;5071064;28;20218;-76
2022/04/13 06:47:05;;;;;;;1.40;1.20;;;20.60;48.40;;;;;;5069978;28;20171;-77
2022/04/13 06:49:30;;;;;;;1.00;1.00;;;20.60;48.60;;;;;;5068893;28;20265;-77
2022/04/13 06:51:58;;;;;;;1.23;1.00;;;20.60;48.50;;;;;;5068830;28;20172;-77
2022/04/13 06:54:27;;;;;;;1.13;1.03;;;20.70;48.40;;;;;;5073166;28;20211;-77
2022/04/13 06:56:54;;;;;;;1.20;1.10;;;20.80;48.20;;;;;;5068430;28;20187;-77
2022/04/13 06:59:22;;;;;;;0.90;0.90;;;20.90;48.10;;;;;;5069006;28;20552;-77
2022/04/13 07:02:15;;;;;;;0.90;0.90;;;21.00;47.90;;;;;;5068474;28;20186;-77
2022/04/13 07:04:59;;;;;;;1.20;1.00;;;20.90;48.00;;;;;;5068970;28;20277;-77
2022/04/13 07:07:41;;;;;;;1.03;0.97;;;20.80;48.20;;;;;;5069102;28;20546;-77
2022/04/13 07:10:16;;;;;;;1.10;1.00;;;20.80;48.40;;;;;;5069807;28;20547;-77
2022/04/13 07:12:42;;;;;;;1.33;1.03;;;20.80;48.40;;;;;;5067432;28;20181;-77
2022/04/13 07:15:12;;;;;;;1.10;1.00;;;20.90;48.30;;;;;;5068479;28;20201;-76
2022/04/13 07:18:00;;;;;;;1.03;1.00;;;21.10;48.10;;;;;;5069048;28;20401;-77
2022/04/13 07:20:42;;;;;;;1.10;1.00;;;21.30;47.80;;;;;;5069807;28;20199;-77
2022/04/13 07:23:07;;;;;;;0.90;0.90;;;21.20;47.70;;;;;;5070195;28;20416;-77
2022/04/13 07:25:33;;;;;;;1.20;1.10;;;21.20;47.80;;;;;;5067100;28;20204;-77
2022/04/13 07:28:13;;;;;;;1.13;1.00;;;21.30;47.80;;;;;;5067208;28;20167;-77
2022/04/13 07:30:49;;;;;;;1.20;1.10;;;21.50;47.50;;;;;;5068326;28;20388;-77
2022/04/13 07:33:18;;;;;;;0.90;0.90;;;21.60;47.30;;;;;;5069635;28;20220;-77
2022/04/13 07:35:44;;;;;;;1.10;1.00;;;21.80;47.10;;;;;;5068987;28;20292;-77
2022/04/13 07:38:13;;;;;;;1.20;1.10;;;21.90;46.90;;;;;;5069806;28;20233;-77
2022/04/13 07:40:42;;;;;;;1.10;1.00;;;22.00;46.80;;;;;;5068946;28;20171;-77
2022/04/13 07:43:15;;;;;;;1.23;1.13;;;22.00;46.70;;;;;;5068346;28;20231;-77
2022/04/13 07:45:46;;;;;;;1.30;1.20;;;22.10;46.60;;;;;;5067710;28;20163;-77
2022/04/13 07:48:21;;;;;;;1.30;1.20;;;22.20;46.50;;;;;;5069497;28;20557;-77
2022/04/13 07:50:50;;;;;;;1.10;1.00;;;22.30;46.40;;;;;;5067833;28;20242;-77
2022/04/13 07:53:36;;;;;;;1.00;0.90;;;22.30;46.40;;;;;;5066001;28;20175;-77
2022/04/13 07:56:01;;;;;;;1.20;1.10;;;22.00;46.50;;;;;;5070916;28;20463;-77
2022/04/13 07:58:33;;;;;;;1.03;1.00;;;21.80;46.80;;;;;;5072392;28;20245;-77
2022/04/13 08:00:59;;;;;;;1.10;1.00;;;21.70;47.00;;;;;;5071407;28;20175;-76
2022/04/13 08:03:27;;;;;;;1.13;1.00;;;21.80;47.10;;;;;;5070004;28;20276;-77
2022/04/13 08:05:55;;;;;;;1.33;1.20;;;22.10;46.80;;;;;;5069768;28;20172;-77
2022/04/13 08:08:30;;;;;;;1.10;1.00;;;22.30;46.50;;;;;;5070118;28;20565;-77
2022/04/13 08:10:59;;;;;;;1.70;1.10;;;22.60;46.40;;;;;;5070445;28;20434;-76
2022/04/13 08:13:30;;;;;;;2.03;1.10;;;22.70;46.20;;;;;;5071342;28;20459;-76
2022/04/13 08:16:05;;;;;;;2.13;1.10;;;22.80;46.10;;;;;;5069430;28;20183;-77
2022/04/13 08:18:33;;;;;;;3.13;1.30;;;22.80;46.10;;;;;;5073326;28;20623;-76
2022/04/13 08:21:08;;;;;;;1.93;1.10;;;22.90;46.20;;;;;;5071630;28;20184;-77
2022/04/13 08:23:34;;;;;;;2.70;1.10;;;23.00;46.20;;;;;;5071761;28;20535;-77
2022/04/13 08:26:24;;;;;;;2.00;1.30;;;23.10;46.10;;;;;;5070802;28;20187;-76
2022/04/13 08:28:52;;;;;;;3.47;1.40;;;23.20;46.00;;;;;;5070099;28;20266;-77
2022/04/13 08:31:20;;;;;;;2.70;1.30;;;23.40;45.80;;;;;;5071285;28;20243;-77
2022/04/13 08:33:46;;;;;;;2.77;1.50;;;23.50;45.80;;;;;;5065024;28;20184;-77
2022/04/13 08:36:21;;;;;;;3.70;1.70;;;23.60;45.70;;;;;;5057216;28;20199;-77
2022/04/13 08:38:56;;;;;;;2.65;1.52;;;23.60;45.60;;;;;;5067207;28;20183;-77
2022/04/13 08:41:40;;;;;;;2.25;1.50;;;23.70;45.60;;;;;;5076769;28;20412;-76
2022/04/13 08:44:16;;;;;;;2.77;1.53;;;23.80;45.50;;;;;;5075696;28;20215;-76
2022/04/13 08:46:44;;;;;;;1.80;1.42;;;23.80;45.40;;;;;;5076331;28;20575;-77
2022/04/13 08:49:12;;;;;;;3.95;1.70;;;23.90;45.40;;;;;;5076609;28;20417;-77
2022/04/13 08:51:45;;;;;;;2.63;1.73;;;24.00;45.40;;;;;;5077763;28;20175;-76
2022/04/13 08:54:29;;;;;;;1.80;1.40;;;24.00;45.30;;;;;;5080017;28;20164;-77
2022/04/13 08:57:09;;;;;;;3.90;1.67;;;24.10;45.40;;;;;;5071446;28;20240;-77
2022/04/13 09:00:14;;;;;;;3.13;1.92;;;24.10;45.30;;;;;;5070487;28;20215;-77
2022/04/13 09:02:55;;;;;;;3.10;1.90;;;24.20;45.20;;;;;;5030631;28;20244;-77
2022/04/13 09:05:31;;;;;;;3.80;1.60;;;24.30;45.10;;;;;;5071279;28;20233;-77
2022/04/13 09:08:36;;;;;;;4.05;1.83;;;24.40;45.50;;;;;;5070004;28;20464;-77
2022/04/13 09:11:08;;;;;;;2.13;1.80;;;24.40;45.00;;;;;;5038940;28;20183;-77
2022/04/13 09:13:34;;;;;;;3.63;2.00;;;24.50;45.00;;;;;;5071177;28;20626;-77
2022/04/13 09:16:04;;;;;;;3.63;1.90;;;24.60;45.00;;;;;;5070755;28;20186;-76
2022/04/13 09:18:33;;;;;;;4.43;2.10;;;24.60;45.10;;;;;;5070631;28;20167;-76
2022/04/13 09:20:59;;;;;;;2.53;1.65;;;24.60;44.90;;;;;;5070583;28;20175;-76
2022/04/13 09:23:34;;;;;;;4.20;1.70;;;24.70;44.90;;;;;;5070095;28;20198;-76
2022/04/13 09:26:10;;;;;;;5.07;2.00;;;24.80;44.90;;;;;;5069600;28;20554;-76
2022/04/13 09:28:39;;;;;;;2.92;1.88;;;24.80;44.80;;;;;;5069157;28;20274;-76
2022/04/13 09:31:05;;;;;;;3.95;2.15;;;24.90;44.80;;;;;;5069405;28;20207;-76
2022/04/13 09:36:16;;;;;;;3.97;1.88;;;25.00;44.70;;;;;;5071319;28;20526;-76
2022/04/13 09:38:42;;;;;;;3.38;2.10;;;25.10;44.70;;;;;;5070142;28;20167;-76
2022/04/13 09:41:10;;;;;;;5.15;2.40;;;25.00;44.70;;;;;;5070292;28;20207;-76
2022/04/13 09:43:37;;;;;;;3.88;1.95;;;25.00;44.70;;;;;;5067943;28;20204;-77
2022/04/13 09:49:19;;;;;;;3.42;2.00;;;24.40;45.10;;;;;;5069429;28;20318;-76
2022/04/13 09:52:46;;;;;;;4.20;2.03;;;24.10;45.60;;;;;;5068373;28;20213;-76
2022/04/13 09:55:14;;;;;;;4.78;1.90;;;23.80;46.00;;;;;;5003535;28;20280;-76
2022/04/13 09:58:10;;;;;;;6.43;2.10;;;23.60;46.30;;;;;;5084160;28;20707;-76
2022/04/13 10:00:39;;;;;;;3.95;1.80;;;23.50;46.60;;;;;;5068052;28;20297;-77
2022/04/13 10:03:15;;;;;;;3.80;2.28;;;23.50;46.70;;;;;;5070229;28;20201;-76
2022/04/13 10:05:49;;;;;;;5.68;2.03;;;23.40;46.80;;;;;;5073889;28;20179;-76
2022/04/13 10:08:43;;;;;;;3.83;2.08;;;23.40;46.90;;;;;;5054036;28;20768;-76
2022/04/13 10:11:09;;;;;;;3.13;2.15;;;23.40;47.10;;;;;;5064203;28;20222;-76
2022/04/13 10:13:42;;;;;;;5.00;1.88;;;23.30;47.20;;;;;;5071578;28;20179;-76
2022/04/13 10:16:39;;;;;;;4.53;2.47;;;23.30;47.30;;;;;;5073527;28;20199;-76
2022/04/13 10:19:05;;;;;;;3.67;2.13;;;23.30;47.50;;;;;;5073446;28;20214;-77
2022/04/13 10:21:47;;;;;;;5.13;2.07;;;23.20;47.50;;;;;;5075050;28;20179;-77
2022/04/13 10:24:39;;;;;;;4.07;1.90;;;23.20;47.60;;;;;;5074499;28;20478;-77
2022/04/13 10:27:25;;;;;;;2.97;1.70;;;23.20;47.70;;;;;;5074745;28;20183;-77
2022/04/13 10:29:51;;;;;;;4.70;1.60;;;23.20;47.80;;;;;;5072675;28;20194;-77
2022/04/13 10:32:24;;;;;;;4.30;2.10;;;23.20;47.80;;;;;;5073826;28;20164;-77
2022/04/13 10:35:14;;;;;;;4.40;1.90;;;23.20;47.90;;;;;;5073144;28;20180;-77
2022/04/13 10:37:39;;;;;;;3.00;1.97;;;23.20;47.90;;;;;;5073780;28;20164;-77
2022/04/13 10:40:09;;;;;;;4.13;1.90;;;23.20;48.00;;;;;;5074155;28;20568;-77
2022/04/13 10:42:46;;;;;;;2.83;1.87;;;23.20;48.00;;;;;;5070035;28;20187;-77
2022/04/13 10:45:16;;;;;;;2.33;1.60;;;23.20;48.00;;;;;;5068931;28;20202;-77
2022/04/13 10:48:26;;;;;;;3.00;1.90;;;23.20;48.00;;;;;;5073770;28;20183;-77
2022/04/13 10:51:02;;;;;;;4.90;2.00;;;23.20;48.10;;;;;;5073212;28;20176;-77
2022/04/13 10:53:54;;;;;;;3.90;1.80;;;23.20;48.20;;;;;;5073639;28;20540;-76
2022/04/13 10:56:42;;;;;;;3.23;1.63;;;23.30;48.20;;;;;;5067444;28;20217;-77
2022/04/13 10:59:53;;;;;;;2.93;1.77;;;23.30;48.30;;;;;;5069218;28;20477;-77
2022/04/13 11:02:34;;;;;;;3.37;1.77;;;23.30;48.30;;;;;;5039887;28;20188;-77
2022/04/13 11:05:04;;;;;;;4.97;1.53;;;23.30;48.30;;;;;;5068249;28;20210;-77
2022/04/13 11:07:30;;;;;;;3.97;1.70;;;23.30;48.40;;;;;;5068808;28;20172;-77
2022/04/13 11:10:04;;;;;;;3.20;2.03;;;23.30;48.40;;;;;;5068772;28;20164;-77
2022/04/13 11:12:52;;;;;;;4.07;1.90;;;23.30;48.40;;;;;;5067917;28;20163;-77
2022/04/13 11:15:43;;;;;;;2.70;1.70;;;23.40;48.50;;;;;;5069338;28;20174;-77
2022/04/13 11:18:25;;;;;;;3.03;1.70;;;23.30;48.40;;;;;;5072986;28;20168;-76
2022/04/13 11:21:10;;;;;;;2.23;1.70;;;23.30;48.50;;;;;;5070987;28;20167;-77
2022/04/13 11:27:03;;;;;;;3.47;1.90;;;23.30;48.60;;;;;;5024493;28;20271;-77
2022/04/13 11:29:56;;;;;;;2.37;1.63;;;23.40;48.60;;;;;;5030916;28;20295;-77
2022/04/13 11:32:31;;;;;;;3.80;1.83;;;23.40;48.60;;;;;;5054474;28;20183;-77
2022/04/13 11:35:03;;;;;;;3.20;1.70;;;23.40;48.60;;;;;;5068210;28;20162;-77
2022/04/13 11:37:35;;;;;;;3.23;1.70;;;23.40;48.70;;;;;;5067822;28;20191;-77
2022/04/13 11:40:35;;;;;;;2.83;1.77;;;23.40;48.80;;;;;;5067118;28;20182;-77
2022/04/13 11:43:05;;;;;;;4.33;2.07;;;23.40;48.80;;;;;;5014052;28;20356;-77
2022/04/13 11:45:33;;;;;;;2.73;1.60;;;23.40;48.90;;;;;;5068514;28;20170;-77
2022/04/13 11:48:04;;;;;;;4.43;1.83;;;23.40;48.80;;;;;;5066542;28;20531;-77
2022/04/13 11:50:36;;;;;;;2.50;1.60;;;23.40;48.90;;;;;;5064793;28;20535;-77
2022/04/13 11:53:16;;;;;;;4.67;1.70;;;23.40;49.00;;;;;;5065430;28;20164;-77
2022/04/13 11:55:46;;;;;;;3.43;1.80;;;23.40;49.00;;;;;;5066766;28;20217;-77
2022/04/13 11:58:30;;;;;;;2.57;1.60;;;23.40;49.00;;;;;;5067185;28;20163;-77
2022/04/13 12:01:08;;;;;;;3.33;1.97;;;23.40;49.10;;;;;;5068065;28;20548;-77
2022/04/13 12:03:43;;;;;;;2.17;1.60;;;23.40;49.10;;;;;;5065681;28;20206;-77
2022/04/13 12:06:18;;;;;;;2.10;1.60;;;23.40;49.20;;;;;;5066908;28;20179;-77
2022/04/13 12:09:03;;;;;;;4.93;1.67;;;23.40;49.20;;;;;;5067302;28;20170;-77
2022/04/13 12:11:49;;;;;;;3.67;1.90;;;23.40;49.20;;;;;;5067526;28;20433;-77
2022/04/13 12:14:38;;;;;;;2.47;1.53;;;23.40;49.30;;;;;;5055235;28;20188;-77
2022/04/13 12:17:11;;;;;;;4.93;1.80;;;23.40;49.20;;;;;;5066091;28;20209;-77
2022/04/13 12:19:42;;;;;;;3.13;1.80;;;23.40;49.20;;;;;;5066247;28;20179;-77
2022/04/13 12:22:22;;;;;;;2.73;1.60;;;23.50;49.30;;;;;;5067320;28;20174;-77
2022/04/13 12:25:11;;;;;;;3.30;1.70;;;23.50;49.30;;;;;;5064646;28;20226;-77
2022/04/13 12:27:38;;;;;;;2.70;1.73;;;23.50;49.30;;;;;;5066939;28;20389;-77
2022/04/13 12:30:17;;;;;;;2.37;1.57;;;23.50;49.30;;;;;;5067715;28;20176;-76
2022/04/13 12:32:49;;;;;;;2.73;1.70;;;23.50;49.30;;;;;;5064924;28;20577;-77
2022/04/13 12:35:27;;;;;;;2.70;1.60;;;23.50;49.30;;;;;;5072359;28;20178;-77
2022/04/13 12:37:59;;;;;;;2.97;1.70;;;23.60;49.30;;;;;;5073548;28;20182;-77
2022/04/13 12:40:28;;;;;;;2.70;1.67;;;23.60;49.30;;;;;;5073582;28;20221;-77
2022/04/13 12:43:09;;;;;;;2.67;1.60;;;23.60;49.40;;;;;;5076220;28;20182;-77
2022/04/13 12:45:42;;;;;;;2.73;1.53;;;23.60;49.40;;;;;;5075511;28;20504;-77
2022/04/13 12:48:08;;;;;;;2.33;1.57;;;23.60;49.30;;;;;;5070281;28;20206;-77
2022/04/13 12:50:34;;;;;;;2.57;1.60;;;23.60;49.40;;;;;;5069412;28;20170;-77
2022/04/13 12:53:03;;;;;;;4.73;1.60;;;23.60;49.40;;;;;;5067030;28;20172;-79
2022/04/13 12:55:41;;;;;;;2.63;1.70;;;23.60;49.50;;;;;;5070049;28;20328;-77
2022/04/13 12:58:12;;;;;;;3.43;1.60;;;23.60;49.50;;;;;;5069311;28;20310;-77
2022/04/13 13:00:59;;;;;;;3.03;1.80;;;23.70;49.50;;;;;;5068947;28;20164;-77
2022/04/13 13:03:34;;;;;;;2.63;1.50;;;23.70;49.60;;;;;;5069109;28;20214;-77
2022/04/13 13:06:14;;;;;;;1.83;1.30;;;23.70;49.60;;;;;;5068582;28;20288;-78
2022/04/13 13:08:57;;;;;;;3.03;1.93;;;23.70;49.60;;;;;;5067921;28;20566;-77
2022/04/13 13:11:25;;;;;;;3.13;1.50;;;23.70;49.60;;;;;;5068149;28;20371;-77
2022/04/13 13:14:07;;;;;;;3.37;1.63;;;23.70;49.60;;;;;;5068485;28;20617;-77
2022/04/13 13:16:59;;;;;;;2.83;1.70;;;23.70;49.70;;;;;;5066586;28;20458;-78
2022/04/13 13:19:24;;;;;;;2.37;1.50;;;23.70;49.70;;;;;;5066164;28;20183;-77
2022/04/13 13:22:24;;;;;;;2.23;1.60;;;23.70;49.70;;;;;;5067876;28;20425;-77
2022/04/13 13:25:06;;;;;;;3.87;1.90;;;23.70;49.70;;;;;;5067909;28;20234;-77